sensor_id;sensor_type;location;lat;lon;timestamp;temperature;humidity
81192;DHT22;70665;47.652;-2.730;2024-02-15T00:00:40;13.50;93.40
81192;DHT22;70665;47.652;-2.730;2024-02-15T00:03:06;13.60;93.70
81192;DHT22;70665;47.652;-2.730;2024-02-15T00:05:38;13.40;93.50
81192;DHT22;70665;47.652;-2.730;2024-02-15T00:08:04;13.50;93.50
81192;DHT22;70665;47.652;-2.730;2024-02-15T00:10:30;13.50;93.40
81192;DHT22;70665;47.652;-2.730;2024-02-15T00:12:56;13.40;93.70
81192;DHT22;70665;47.652;-2.730;2024-02-15T00:15:21;13.50;93.70
81192;DHT22;70665;47.652;-2.730;2024-02-15T00:17:47;13.40;93.60
81192;DHT22;70665;47.652;-2.730;2024-02-15T00:20:13;13.40;93.40
81192;DHT22;70665;47.652;-2.730;2024-02-15T00:22:38;13.40;93.50
81192;DHT22;70665;47.652;-2.730;2024-02-15T00:25:06;13.40;93.70
81192;DHT22;70665;47.652;-2.730;2024-02-15T00:27:34;13.50;93.40
81192;DHT22;70665;47.652;-2.730;2024-02-15T00:30:01;13.50;93.10
81192;DHT22;70665;47.652;-2.730;2024-02-15T00:32:27;13.40;92.90
81192;DHT22;70665;47.652;-2.730;2024-02-15T00:34:52;13.50;93.00
81192;DHT22;70665;47.652;-2.730;2024-02-15T00:37:18;13.50;92.70
81192;DHT22;70665;47.652;-2.730;2024-02-15T00:39:44;13.50;92.60
81192;DHT22;70665;47.652;-2.730;2024-02-15T00:42:10;13.50;92.70
81192;DHT22;70665;47.652;-2.730;2024-02-15T00:44:35;13.50;92.50
81192;DHT22;70665;47.652;-2.730;2024-02-15T00:47:02;13.50;92.30
81192;DHT22;70665;47.652;-2.730;2024-02-15T00:49:28;13.40;92.50
81192;DHT22;70665;47.652;-2.730;2024-02-15T00:51:53;13.40;92.70
81192;DHT22;70665;47.652;-2.730;2024-02-15T00:54:19;13.30;93.00
81192;DHT22;70665;47.652;-2.730;2024-02-15T00:56:45;13.40;92.80
81192;DHT22;70665;47.652;-2.730;2024-02-15T00:59:10;13.30;92.90
81192;DHT22;70665;47.652;-2.730;2024-02-15T01:01:36;13.30;92.90
81192;DHT22;70665;47.652;-2.730;2024-02-15T01:04:06;13.30;92.70
81192;DHT22;70665;47.652;-2.730;2024-02-15T01:06:32;13.30;93.00
81192;DHT22;70665;47.652;-2.730;2024-02-15T01:08:59;13.30;93.00
81192;DHT22;70665;47.652;-2.730;2024-02-15T01:11:27;13.30;92.90
81192;DHT22;70665;47.652;-2.730;2024-02-15T01:13:55;13.20;92.80
81192;DHT22;70665;47.652;-2.730;2024-02-15T01:16:20;13.30;92.90
81192;DHT22;70665;47.652;-2.730;2024-02-15T01:18:47;13.30;92.90
81192;DHT22;70665;47.652;-2.730;2024-02-15T01:21:12;13.20;92.80
81192;DHT22;70665;47.652;-2.730;2024-02-15T01:23:38;13.20;92.80
81192;DHT22;70665;47.652;-2.730;2024-02-15T01:26:04;13.20;92.80
81192;DHT22;70665;47.652;-2.730;2024-02-15T01:28:30;13.20;92.60
81192;DHT22;70665;47.652;-2.730;2024-02-15T01:30:56;13.20;92.70
81192;DHT22;70665;47.652;-2.730;2024-02-15T01:33:21;13.20;92.60
81192;DHT22;70665;47.652;-2.730;2024-02-15T01:35:47;13.10;92.70
81192;DHT22;70665;47.652;-2.730;2024-02-15T01:38:14;13.10;92.90
81192;DHT22;70665;47.652;-2.730;2024-02-15T01:40:40;13.10;92.80
81192;DHT22;70665;47.652;-2.730;2024-02-15T01:43:05;13.00;93.00
81192;DHT22;70665;47.652;-2.730;2024-02-15T01:45:31;13.10;93.10
81192;DHT22;70665;47.652;-2.730;2024-02-15T01:47:57;13.10;92.90
81192;DHT22;70665;47.652;-2.730;2024-02-15T01:50:26;13.10;92.70
81192;DHT22;70665;47.652;-2.730;2024-02-15T01:52:54;13.10;92.60
81192;DHT22;70665;47.652;-2.730;2024-02-15T01:55:22;13.10;92.70
81192;DHT22;70665;47.652;-2.730;2024-02-15T01:57:48;13.10;92.60
81192;DHT22;70665;47.652;-2.730;2024-02-15T02:00:17;13.10;92.60
81192;DHT22;70665;47.652;-2.730;2024-02-15T02:02:44;13.10;92.30
81192;DHT22;70665;47.652;-2.730;2024-02-15T02:05:10;13.10;92.40
81192;DHT22;70665;47.652;-2.730;2024-02-15T02:07:37;13.00;92.20
81192;DHT22;70665;47.652;-2.730;2024-02-15T02:10:03;13.10;92.30
81192;DHT22;70665;47.652;-2.730;2024-02-15T02:12:30;12.90;92.00
81192;DHT22;70665;47.652;-2.730;2024-02-15T02:14:56;13.00;92.40
81192;DHT22;70665;47.652;-2.730;2024-02-15T02:17:22;13.00;92.60
81192;DHT22;70665;47.652;-2.730;2024-02-15T02:19:47;12.90;92.50
81192;DHT22;70665;47.652;-2.730;2024-02-15T02:22:16;12.90;92.50
81192;DHT22;70665;47.652;-2.730;2024-02-15T02:25:07;13.00;92.40
81192;DHT22;70665;47.652;-2.730;2024-02-15T02:27:34;12.90;92.40
81192;DHT22;70665;47.652;-2.730;2024-02-15T02:30:00;12.80;92.60
81192;DHT22;70665;47.652;-2.730;2024-02-15T02:32:26;12.90;92.60
81192;DHT22;70665;47.652;-2.730;2024-02-15T02:34:53;12.90;92.30
81192;DHT22;70665;47.652;-2.730;2024-02-15T02:37:23;12.90;92.10
81192;DHT22;70665;47.652;-2.730;2024-02-15T02:39:50;13.00;92.20
81192;DHT22;70665;47.652;-2.730;2024-02-15T02:42:16;12.90;92.30
81192;DHT22;70665;47.652;-2.730;2024-02-15T02:44:41;12.90;92.20
81192;DHT22;70665;47.652;-2.730;2024-02-15T02:47:07;12.90;92.00
81192;DHT22;70665;47.652;-2.730;2024-02-15T02:49:35;12.80;91.90
81192;DHT22;70665;47.652;-2.730;2024-02-15T02:52:01;12.90;92.10
81192;DHT22;70665;47.652;-2.730;2024-02-15T02:54:26;12.80;92.00
81192;DHT22;70665;47.652;-2.730;2024-02-15T02:56:53;12.90;91.80
81192;DHT22;70665;47.652;-2.730;2024-02-15T02:59:19;12.80;92.10
81192;DHT22;70665;47.652;-2.730;2024-02-15T03:01:45;12.90;92.00
81192;DHT22;70665;47.652;-2.730;2024-02-15T03:04:10;12.80;91.90
81192;DHT22;70665;47.652;-2.730;2024-02-15T03:06:37;12.90;91.90
81192;DHT22;70665;47.652;-2.730;2024-02-15T03:09:03;13.00;91.70
81192;DHT22;70665;47.652;-2.730;2024-02-15T03:11:32;13.00;91.70
81192;DHT22;70665;47.652;-2.730;2024-02-15T03:13:59;12.90;91.60
81192;DHT22;70665;47.652;-2.730;2024-02-15T03:16:25;12.90;91.50
81192;DHT22;70665;47.652;-2.730;2024-02-15T03:18:51;12.90;91.60
81192;DHT22;70665;47.652;-2.730;2024-02-15T03:21:18;12.80;91.70
81192;DHT22;70665;47.652;-2.730;2024-02-15T03:23:44;12.90;91.70
81192;DHT22;70665;47.652;-2.730;2024-02-15T03:26:09;12.90;91.80
81192;DHT22;70665;47.652;-2.730;2024-02-15T03:28:36;12.80;91.80
81192;DHT22;70665;47.652;-2.730;2024-02-15T03:31:03;12.70;92.00
81192;DHT22;70665;47.652;-2.730;2024-02-15T03:33:28;12.80;92.00
81192;DHT22;70665;47.652;-2.730;2024-02-15T03:35:59;12.90;92.00
81192;DHT22;70665;47.652;-2.730;2024-02-15T03:38:26;12.80;92.00
81192;DHT22;70665;47.652;-2.730;2024-02-15T03:40:55;12.90;92.10
81192;DHT22;70665;47.652;-2.730;2024-02-15T03:43:20;12.90;91.90
81192;DHT22;70665;47.652;-2.730;2024-02-15T03:45:46;12.80;92.20
81192;DHT22;70665;47.652;-2.730;2024-02-15T03:48:12;12.80;92.10
81192;DHT22;70665;47.652;-2.730;2024-02-15T03:50:37;12.90;92.20
81192;DHT22;70665;47.652;-2.730;2024-02-15T03:53:03;12.80;92.20
81192;DHT22;70665;47.652;-2.730;2024-02-15T03:55:29;12.70;92.20
81192;DHT22;70665;47.652;-2.730;2024-02-15T03:57:55;12.80;92.50
81192;DHT22;70665;47.652;-2.730;2024-02-15T04:00:21;12.80;92.30
81192;DHT22;70665;47.652;-2.730;2024-02-15T04:02:47;12.70;92.60
81192;DHT22;70665;47.652;-2.730;2024-02-15T04:05:16;12.80;92.60
81192;DHT22;70665;47.652;-2.730;2024-02-15T04:07:46;12.90;92.50
81192;DHT22;70665;47.652;-2.730;2024-02-15T04:10:12;12.90;92.20
81192;DHT22;70665;47.652;-2.730;2024-02-15T04:12:37;12.90;91.90
81192;DHT22;70665;47.652;-2.730;2024-02-15T04:15:04;13.00;92.00
81192;DHT22;70665;47.652;-2.730;2024-02-15T04:17:37;13.00;92.10
81192;DHT22;70665;47.652;-2.730;2024-02-15T04:20:04;13.00;91.80
81192;DHT22;70665;47.652;-2.730;2024-02-15T04:22:32;13.00;91.60
81192;DHT22;70665;47.652;-2.730;2024-02-15T04:25:03;13.20;91.60
81192;DHT22;70665;47.652;-2.730;2024-02-15T04:27:29;13.10;91.70
81192;DHT22;70665;47.652;-2.730;2024-02-15T04:29:55;13.10;91.40
81192;DHT22;70665;47.652;-2.730;2024-02-15T04:32:21;13.10;91.40
81192;DHT22;70665;47.652;-2.730;2024-02-15T04:34:47;13.20;91.40
81192;DHT22;70665;47.652;-2.730;2024-02-15T04:37:13;13.30;91.10
81192;DHT22;70665;47.652;-2.730;2024-02-15T04:39:39;13.30;91.10
81192;DHT22;70665;47.652;-2.730;2024-02-15T04:42:05;13.30;91.00
81192;DHT22;70665;47.652;-2.730;2024-02-15T04:44:33;13.30;90.80
81192;DHT22;70665;47.652;-2.730;2024-02-15T04:47:01;13.30;90.70
81192;DHT22;70665;47.652;-2.730;2024-02-15T04:49:29;13.30;90.90
81192;DHT22;70665;47.652;-2.730;2024-02-15T04:51:55;13.30;90.40
81192;DHT22;70665;47.652;-2.730;2024-02-15T04:54:22;13.40;90.40
81192;DHT22;70665;47.652;-2.730;2024-02-15T04:56:48;13.30;90.60
81192;DHT22;70665;47.652;-2.730;2024-02-15T04:59:16;13.30;90.70
81192;DHT22;70665;47.652;-2.730;2024-02-15T05:01:42;13.30;90.70
81192;DHT22;70665;47.652;-2.730;2024-02-15T05:04:11;13.30;90.70
81192;DHT22;70665;47.652;-2.730;2024-02-15T05:06:37;13.30;90.60
81192;DHT22;70665;47.652;-2.730;2024-02-15T05:09:03;13.30;90.60
81192;DHT22;70665;47.652;-2.730;2024-02-15T05:11:39;13.30;90.50
81192;DHT22;70665;47.652;-2.730;2024-02-15T05:14:13;13.40;90.50
81192;DHT22;70665;47.652;-2.730;2024-02-15T05:16:45;13.40;90.50
81192;DHT22;70665;47.652;-2.730;2024-02-15T05:19:13;13.40;90.30
81192;DHT22;70665;47.652;-2.730;2024-02-15T05:21:39;13.30;90.10
81192;DHT22;70665;47.652;-2.730;2024-02-15T05:24:06;13.30;90.30
81192;DHT22;70665;47.652;-2.730;2024-02-15T05:26:32;13.40;90.20
81192;DHT22;70665;47.652;-2.730;2024-02-15T05:28:58;13.40;90.00
81192;DHT22;70665;47.652;-2.730;2024-02-15T05:31:23;13.30;90.20
81192;DHT22;70665;47.652;-2.730;2024-02-15T05:33:53;13.30;89.90
81192;DHT22;70665;47.652;-2.730;2024-02-15T05:36:20;13.20;90.20
81192;DHT22;70665;47.652;-2.730;2024-02-15T05:38:52;13.10;90.00
81192;DHT22;70665;47.652;-2.730;2024-02-15T05:41:18;13.20;90.00
81192;DHT22;70665;47.652;-2.730;2024-02-15T05:43:45;13.10;90.10
81192;DHT22;70665;47.652;-2.730;2024-02-15T05:46:12;13.00;90.20
81192;DHT22;70665;47.652;-2.730;2024-02-15T05:48:38;13.00;90.40
81192;DHT22;70665;47.652;-2.730;2024-02-15T05:51:05;13.00;90.70
81192;DHT22;70665;47.652;-2.730;2024-02-15T05:53:31;12.90;90.50
81192;DHT22;70665;47.652;-2.730;2024-02-15T05:55:58;12.80;90.70
81192;DHT22;70665;47.652;-2.730;2024-02-15T05:58:24;12.90;90.60
81192;DHT22;70665;47.652;-2.730;2024-02-15T06:00:50;12.80;90.70
81192;DHT22;70665;47.652;-2.730;2024-02-15T06:03:16;12.80;90.70
81192;DHT22;70665;47.652;-2.730;2024-02-15T06:05:43;12.70;90.90
81192;DHT22;70665;47.652;-2.730;2024-02-15T06:08:09;12.70;91.00
81192;DHT22;70665;47.652;-2.730;2024-02-15T06:10:38;12.60;90.90
81192;DHT22;70665;47.652;-2.730;2024-02-15T06:13:03;12.60;91.00
81192;DHT22;70665;47.652;-2.730;2024-02-15T06:15:29;12.50;90.90
81192;DHT22;70665;47.652;-2.730;2024-02-15T06:17:55;12.40;91.10
81192;DHT22;70665;47.652;-2.730;2024-02-15T06:20:21;12.50;91.30
81192;DHT22;70665;47.652;-2.730;2024-02-15T06:22:48;12.30;91.20
81192;DHT22;70665;47.652;-2.730;2024-02-15T06:25:14;12.50;91.10
81192;DHT22;70665;47.652;-2.730;2024-02-15T06:27:46;12.40;91.00
81192;DHT22;70665;47.652;-2.730;2024-02-15T06:30:13;12.50;90.90
81192;DHT22;70665;47.652;-2.730;2024-02-15T06:32:57;12.40;90.80
81192;DHT22;70665;47.652;-2.730;2024-02-15T06:35:41;12.60;90.70
81192;DHT22;70665;47.652;-2.730;2024-02-15T06:38:25;12.50;90.70
81192;DHT22;70665;47.652;-2.730;2024-02-15T06:41:09;12.50;90.80
81192;DHT22;70665;47.652;-2.730;2024-02-15T06:43:35;12.70;90.60
81192;DHT22;70665;47.652;-2.730;2024-02-15T06:46:02;12.70;90.40
81192;DHT22;70665;47.652;-2.730;2024-02-15T06:48:28;12.50;90.10
81192;DHT22;70665;47.652;-2.730;2024-02-15T06:50:54;12.60;90.20
81192;DHT22;70665;47.652;-2.730;2024-02-15T06:53:19;12.60;90.20
81192;DHT22;70665;47.652;-2.730;2024-02-15T06:55:48;12.70;90.10
81192;DHT22;70665;47.652;-2.730;2024-02-15T06:58:17;12.70;90.20
81192;DHT22;70665;47.652;-2.730;2024-02-15T07:00:43;12.60;90.10
81192;DHT22;70665;47.652;-2.730;2024-02-15T07:03:09;12.60;90.10
81192;DHT22;70665;47.652;-2.730;2024-02-15T07:05:34;12.70;90.20
81192;DHT22;70665;47.652;-2.730;2024-02-15T07:08:01;12.60;90.10
81192;DHT22;70665;47.652;-2.730;2024-02-15T07:10:26;12.70;90.00
81192;DHT22;70665;47.652;-2.730;2024-02-15T07:12:52;12.70;90.10
81192;DHT22;70665;47.652;-2.730;2024-02-15T07:15:18;12.80;89.90
81192;DHT22;70665;47.652;-2.730;2024-02-15T07:17:43;12.80;89.80
81192;DHT22;70665;47.652;-2.730;2024-02-15T07:20:12;12.80;89.70
81192;DHT22;70665;47.652;-2.730;2024-02-15T07:22:45;12.90;89.50
81192;DHT22;70665;47.652;-2.730;2024-02-15T07:25:11;12.80;89.30
81192;DHT22;70665;47.652;-2.730;2024-02-15T07:27:37;12.80;89.40
81192;DHT22;70665;47.652;-2.730;2024-02-15T07:30:03;12.90;89.30
81192;DHT22;70665;47.652;-2.730;2024-02-15T07:32:31;12.90;89.30
81192;DHT22;70665;47.652;-2.730;2024-02-15T07:34:57;13.00;89.40
81192;DHT22;70665;47.652;-2.730;2024-02-15T07:37:23;13.00;89.40
81192;DHT22;70665;47.652;-2.730;2024-02-15T07:39:56;13.20;89.00
81192;DHT22;70665;47.652;-2.730;2024-02-15T07:42:22;13.20;89.00
81192;DHT22;70665;47.652;-2.730;2024-02-15T07:44:54;13.30;88.70
81192;DHT22;70665;47.652;-2.730;2024-02-15T07:47:21;13.40;88.40
81192;DHT22;70665;47.652;-2.730;2024-02-15T07:49:53;13.40;88.00
81192;DHT22;70665;47.652;-2.730;2024-02-15T07:52:21;13.50;88.10
81192;DHT22;70665;47.652;-2.730;2024-02-15T07:54:48;13.50;88.00
81192;DHT22;70665;47.652;-2.730;2024-02-15T07:57:14;13.50;87.80
81192;DHT22;70665;47.652;-2.730;2024-02-15T07:59:40;13.60;87.50
81192;DHT22;70665;47.652;-2.730;2024-02-15T08:02:08;13.60;87.10
81192;DHT22;70665;47.652;-2.730;2024-02-15T08:04:34;13.70;86.90
81192;DHT22;70665;47.652;-2.730;2024-02-15T08:07:06;13.70;87.00
81192;DHT22;70665;47.652;-2.730;2024-02-15T08:09:37;13.70;87.20
81192;DHT22;70665;47.652;-2.730;2024-02-15T08:12:03;13.90;86.80
81192;DHT22;70665;47.652;-2.730;2024-02-15T08:14:29;13.90;86.50
81192;DHT22;70665;47.652;-2.730;2024-02-15T08:16:56;13.90;86.60
81192;DHT22;70665;47.652;-2.730;2024-02-15T08:19:23;13.90;86.30
81192;DHT22;70665;47.652;-2.730;2024-02-15T08:21:49;14.00;86.20
81192;DHT22;70665;47.652;-2.730;2024-02-15T08:24:16;14.10;86.40
81192;DHT22;70665;47.652;-2.730;2024-02-15T08:26:42;14.10;85.90
81192;DHT22;70665;47.652;-2.730;2024-02-15T08:29:09;14.20;85.60
81192;DHT22;70665;47.652;-2.730;2024-02-15T08:31:38;14.20;85.60
81192;DHT22;70665;47.652;-2.730;2024-02-15T08:34:04;14.10;85.30
81192;DHT22;70665;47.652;-2.730;2024-02-15T08:36:31;14.10;85.50
81192;DHT22;70665;47.652;-2.730;2024-02-15T08:38:57;14.30;85.60
81192;DHT22;70665;47.652;-2.730;2024-02-15T08:41:23;14.30;85.20
81192;DHT22;70665;47.652;-2.730;2024-02-15T08:43:53;14.30;85.40
81192;DHT22;70665;47.652;-2.730;2024-02-15T08:46:23;14.40;85.20
81192;DHT22;70665;47.652;-2.730;2024-02-15T08:48:51;14.40;85.70
81192;DHT22;70665;47.652;-2.730;2024-02-15T08:51:17;14.40;85.30
81192;DHT22;70665;47.652;-2.730;2024-02-15T08:53:43;14.50;85.30
81192;DHT22;70665;47.652;-2.730;2024-02-15T08:56:09;14.40;85.30
81192;DHT22;70665;47.652;-2.730;2024-02-15T08:58:35;14.50;85.60
81192;DHT22;70665;47.652;-2.730;2024-02-15T09:01:03;14.40;85.40
81192;DHT22;70665;47.652;-2.730;2024-02-15T09:03:30;14.50;85.40
81192;DHT22;70665;47.652;-2.730;2024-02-15T09:05:55;14.60;85.60
81192;DHT22;70665;47.652;-2.730;2024-02-15T09:08:21;14.60;85.50
81192;DHT22;70665;47.652;-2.730;2024-02-15T09:10:49;14.70;85.60
81192;DHT22;70665;47.652;-2.730;2024-02-15T09:13:15;14.80;85.50
81192;DHT22;70665;47.652;-2.730;2024-02-15T09:15:41;15.00;85.10
81192;DHT22;70665;47.652;-2.730;2024-02-15T09:18:07;15.00;84.20
81192;DHT22;70665;47.652;-2.730;2024-02-15T09:20:35;15.10;84.80
81192;DHT22;70665;47.652;-2.730;2024-02-15T09:23:03;15.00;84.70
81192;DHT22;70665;47.652;-2.730;2024-02-15T09:25:37;15.20;84.80
81192;DHT22;70665;47.652;-2.730;2024-02-15T09:28:03;15.10;84.40
81192;DHT22;70665;47.652;-2.730;2024-02-15T09:30:29;15.20;84.40
81192;DHT22;70665;47.652;-2.730;2024-02-15T09:32:56;15.30;84.70
81192;DHT22;70665;47.652;-2.730;2024-02-15T09:35:22;15.40;84.50
81192;DHT22;70665;47.652;-2.730;2024-02-15T09:37:48;15.40;83.60
81192;DHT22;70665;47.652;-2.730;2024-02-15T09:40:15;15.60;83.60
81192;DHT22;70665;47.652;-2.730;2024-02-15T09:42:43;15.60;83.40
81192;DHT22;70665;47.652;-2.730;2024-02-15T09:45:12;15.70;83.70
81192;DHT22;70665;47.652;-2.730;2024-02-15T09:47:38;15.70;83.10
81192;DHT22;70665;47.652;-2.730;2024-02-15T09:52:34;15.90;83.60
81192;DHT22;70665;47.652;-2.730;2024-02-15T09:55:03;15.90;83.00
81192;DHT22;70665;47.652;-2.730;2024-02-15T09:57:32;16.00;82.70
81192;DHT22;70665;47.652;-2.730;2024-02-15T09:59:58;16.10;82.90
81192;DHT22;70665;47.652;-2.730;2024-02-15T10:02:26;16.10;82.70
81192;DHT22;70665;47.652;-2.730;2024-02-15T10:04:53;16.20;83.10
81192;DHT22;70665;47.652;-2.730;2024-02-15T10:07:23;16.20;82.90
81192;DHT22;70665;47.652;-2.730;2024-02-15T10:09:48;16.40;83.20
81192;DHT22;70665;47.652;-2.730;2024-02-15T10:12:14;16.40;82.40
81192;DHT22;70665;47.652;-2.730;2024-02-15T10:14:47;16.50;82.90
81192;DHT22;70665;47.652;-2.730;2024-02-15T10:17:15;16.60;83.30
81192;DHT22;70665;47.652;-2.730;2024-02-15T10:19:42;16.60;83.40
81192;DHT22;70665;47.652;-2.730;2024-02-15T10:22:10;16.70;82.80
81192;DHT22;70665;47.652;-2.730;2024-02-15T10:24:37;16.90;83.00
81192;DHT22;70665;47.652;-2.730;2024-02-15T10:27:05;16.90;82.80
81192;DHT22;70665;47.652;-2.730;2024-02-15T10:29:36;16.90;81.70
81192;DHT22;70665;47.652;-2.730;2024-02-15T10:32:03;17.00;82.40
81192;DHT22;70665;47.652;-2.730;2024-02-15T10:34:30;17.00;82.40
81192;DHT22;70665;47.652;-2.730;2024-02-15T10:37:12;17.00;82.20
81192;DHT22;70665;47.652;-2.730;2024-02-15T10:39:38;17.10;82.60
81192;DHT22;70665;47.652;-2.730;2024-02-15T10:42:06;17.10;82.00
81192;DHT22;70665;47.652;-2.730;2024-02-15T10:44:31;17.20;82.10
81192;DHT22;70665;47.652;-2.730;2024-02-15T10:47:00;17.10;82.40
81192;DHT22;70665;47.652;-2.730;2024-02-15T10:49:31;17.30;82.40
81192;DHT22;70665;47.652;-2.730;2024-02-15T10:51:57;17.10;81.80
81192;DHT22;70665;47.652;-2.730;2024-02-15T10:54:47;17.10;82.20
81192;DHT22;70665;47.652;-2.730;2024-02-15T10:57:20;17.10;83.00
81192;DHT22;70665;47.652;-2.730;2024-02-15T11:00:06;17.10;83.00
81192;DHT22;70665;47.652;-2.730;2024-02-15T11:03:03;17.20;82.50
81192;DHT22;70665;47.652;-2.730;2024-02-15T11:05:33;17.30;82.20
81192;DHT22;70665;47.652;-2.730;2024-02-15T11:08:06;17.40;82.20
81192;DHT22;70665;47.652;-2.730;2024-02-15T11:10:38;17.50;82.70
81192;DHT22;70665;47.652;-2.730;2024-02-15T11:13:10;17.50;82.10
81192;DHT22;70665;47.652;-2.730;2024-02-15T11:18:02;17.50;81.50
81192;DHT22;70665;47.652;-2.730;2024-02-15T11:23:02;17.70;82.20
81192;DHT22;70665;47.652;-2.730;2024-02-15T11:25:37;17.70;81.80
81192;DHT22;70665;47.652;-2.730;2024-02-15T11:30:52;17.40;81.50
81192;DHT22;70665;47.652;-2.730;2024-02-15T11:36:06;17.40;81.50
81192;DHT22;70665;47.652;-2.730;2024-02-15T11:38:34;17.30;81.80
81192;DHT22;70665;47.652;-2.730;2024-02-15T11:41:08;17.10;81.80
81192;DHT22;70665;47.652;-2.730;2024-02-15T11:46:20;17.10;82.90
81192;DHT22;70665;47.652;-2.730;2024-02-15T11:48:47;17.10;82.60
81192;DHT22;70665;47.652;-2.730;2024-02-15T11:51:33;16.90;82.90
81192;DHT22;70665;47.652;-2.730;2024-02-15T11:56:51;16.80;83.30
81192;DHT22;70665;47.652;-2.730;2024-02-15T11:59:20;16.80;82.10
81192;DHT22;70665;47.652;-2.730;2024-02-15T12:01:57;16.80;82.80
81192;DHT22;70665;47.652;-2.730;2024-02-15T12:04:43;16.80;82.50
81192;DHT22;70665;47.652;-2.730;2024-02-15T12:07:28;16.90;82.60
81192;DHT22;70665;47.652;-2.730;2024-02-15T12:10:19;16.80;81.70
81192;DHT22;70665;47.652;-2.730;2024-02-15T12:13:03;16.80;82.40
81192;DHT22;70665;47.652;-2.730;2024-02-15T12:16:08;16.70;82.60
81192;DHT22;70665;47.652;-2.730;2024-02-15T12:18:52;16.80;82.60
81192;DHT22;70665;47.652;-2.730;2024-02-15T12:21:22;16.70;82.10
81192;DHT22;70665;47.652;-2.730;2024-02-15T12:23:49;16.70;82.50
81192;DHT22;70665;47.652;-2.730;2024-02-15T12:26:21;16.50;82.40
81192;DHT22;70665;47.652;-2.730;2024-02-15T12:28:52;16.50;82.40
81192;DHT22;70665;47.652;-2.730;2024-02-15T12:31:22;16.30;82.70
81192;DHT22;70665;47.652;-2.730;2024-02-15T12:34:02;16.30;82.40
81192;DHT22;70665;47.652;-2.730;2024-02-15T12:36:35;16.30;83.00
81192;DHT22;70665;47.652;-2.730;2024-02-15T12:39:05;16.40;82.80
81192;DHT22;70665;47.652;-2.730;2024-02-15T12:41:49;16.50;82.90
81192;DHT22;70665;47.652;-2.730;2024-02-15T12:44:18;16.50;82.60
81192;DHT22;70665;47.652;-2.730;2024-02-15T12:46:54;16.50;81.90
81192;DHT22;70665;47.652;-2.730;2024-02-15T12:51:53;16.70;80.80
81192;DHT22;70665;47.652;-2.730;2024-02-15T12:54:23;16.50;81.40
81192;DHT22;70665;47.652;-2.730;2024-02-15T12:56:49;16.60;81.70
81192;DHT22;70665;47.652;-2.730;2024-02-15T12:59:18;16.60;81.50
81192;DHT22;70665;47.652;-2.730;2024-02-15T13:01:45;16.60;81.40
81192;DHT22;70665;47.652;-2.730;2024-02-15T13:04:23;16.60;82.10
81192;DHT22;70665;47.652;-2.730;2024-02-15T13:06:48;16.70;81.80
81192;DHT22;70665;47.652;-2.730;2024-02-15T13:09:14;16.80;81.50
81192;DHT22;70665;47.652;-2.730;2024-02-15T13:11:40;17.00;81.20
81192;DHT22;70665;47.652;-2.730;2024-02-15T13:14:05;17.00;80.30
81192;DHT22;70665;47.652;-2.730;2024-02-15T13:16:31;17.30;80.50
81192;DHT22;70665;47.652;-2.730;2024-02-15T13:18:57;17.60;79.40
81192;DHT22;70665;47.652;-2.730;2024-02-15T13:21:24;17.70;79.10
81192;DHT22;70665;47.652;-2.730;2024-02-15T13:23:55;17.70;78.00
81192;DHT22;70665;47.652;-2.730;2024-02-15T13:26:21;17.70;78.20
81192;DHT22;70665;47.652;-2.730;2024-02-15T13:28:48;17.70;77.90
81192;DHT22;70665;47.652;-2.730;2024-02-15T13:31:15;17.60;78.30
81192;DHT22;70665;47.652;-2.730;2024-02-15T13:33:41;17.50;78.80
81192;DHT22;70665;47.652;-2.730;2024-02-15T13:36:06;17.50;79.40
81192;DHT22;70665;47.652;-2.730;2024-02-15T13:38:36;17.40;78.80
81192;DHT22;70665;47.652;-2.730;2024-02-15T13:41:02;17.40;78.10
81192;DHT22;70665;47.652;-2.730;2024-02-15T13:43:29;17.40;78.10
81192;DHT22;70665;47.652;-2.730;2024-02-15T13:45:54;17.40;78.20
81192;DHT22;70665;47.652;-2.730;2024-02-15T13:48:20;17.40;77.80
81192;DHT22;70665;47.652;-2.730;2024-02-15T13:50:46;17.50;77.90
81192;DHT22;70665;47.652;-2.730;2024-02-15T13:53:11;17.50;78.00
81192;DHT22;70665;47.652;-2.730;2024-02-15T13:55:39;17.50;77.30
81192;DHT22;70665;47.652;-2.730;2024-02-15T13:58:05;17.60;78.30
81192;DHT22;70665;47.652;-2.730;2024-02-15T14:00:33;17.50;77.30
81192;DHT22;70665;47.652;-2.730;2024-02-15T14:02:59;17.40;76.80
81192;DHT22;70665;47.652;-2.730;2024-02-15T14:05:27;17.50;78.50
81192;DHT22;70665;47.652;-2.730;2024-02-15T14:07:59;17.50;76.90
81192;DHT22;70665;47.652;-2.730;2024-02-15T14:10:27;17.70;76.00
81192;DHT22;70665;47.652;-2.730;2024-02-15T14:12:54;18.30;76.20
81192;DHT22;70665;47.652;-2.730;2024-02-15T14:15:28;18.50;73.70
81192;DHT22;70665;47.652;-2.730;2024-02-15T14:17:54;18.60;73.30
81192;DHT22;70665;47.652;-2.730;2024-02-15T14:20:21;19.20;73.10
81192;DHT22;70665;47.652;-2.730;2024-02-15T14:22:48;19.60;71.20
81192;DHT22;70665;47.652;-2.730;2024-02-15T14:25:15;19.40;69.50
81192;DHT22;70665;47.652;-2.730;2024-02-15T14:27:41;19.20;69.80
81192;DHT22;70665;47.652;-2.730;2024-02-15T14:30:10;18.80;72.50
81192;DHT22;70665;47.652;-2.730;2024-02-15T14:32:54;18.70;72.50
81192;DHT22;70665;47.652;-2.730;2024-02-15T14:35:36;18.40;72.10
81192;DHT22;70665;47.652;-2.730;2024-02-15T14:38:13;18.10;74.90
81192;DHT22;70665;47.652;-2.730;2024-02-15T14:40:40;18.00;74.00
81192;DHT22;70665;47.652;-2.730;2024-02-15T14:43:08;17.90;76.10
81192;DHT22;70665;47.652;-2.730;2024-02-15T14:45:38;18.00;75.70
81192;DHT22;70665;47.652;-2.730;2024-02-15T14:48:06;18.00;76.40
81192;DHT22;70665;47.652;-2.730;2024-02-15T14:50:38;17.90;73.20
81192;DHT22;70665;47.652;-2.730;2024-02-15T14:53:04;17.70;76.40
81192;DHT22;70665;47.652;-2.730;2024-02-15T14:55:30;17.30;76.00
81192;DHT22;70665;47.652;-2.730;2024-02-15T14:57:57;17.20;76.10
81192;DHT22;70665;47.652;-2.730;2024-02-15T15:00:23;17.00;77.80
81192;DHT22;70665;47.652;-2.730;2024-02-15T15:02:52;16.70;78.00
81192;DHT22;70665;47.652;-2.730;2024-02-15T15:05:18;16.60;78.50
81192;DHT22;70665;47.652;-2.730;2024-02-15T15:08:02;16.50;79.10
81192;DHT22;70665;47.652;-2.730;2024-02-15T15:10:47;16.50;80.40
81192;DHT22;70665;47.652;-2.730;2024-02-15T15:13:35;16.30;80.80
81192;DHT22;70665;47.652;-2.730;2024-02-15T15:16:01;16.20;80.40
81192;DHT22;70665;47.652;-2.730;2024-02-15T15:18:28;16.30;80.10
81192;DHT22;70665;47.652;-2.730;2024-02-15T15:20:58;16.30;79.70
81192;DHT22;70665;47.652;-2.730;2024-02-15T15:23:25;16.40;80.50
81192;DHT22;70665;47.652;-2.730;2024-02-15T15:25:51;16.60;79.80
81192;DHT22;70665;47.652;-2.730;2024-02-15T15:28:16;16.80;78.10
81192;DHT22;70665;47.652;-2.730;2024-02-15T15:30:43;17.10;78.10
81192;DHT22;70665;47.652;-2.730;2024-02-15T15:33:14;17.20;78.40
81192;DHT22;70665;47.652;-2.730;2024-02-15T15:35:40;17.40;78.00
81192;DHT22;70665;47.652;-2.730;2024-02-15T15:38:06;17.50;77.30
81192;DHT22;70665;47.652;-2.730;2024-02-15T15:40:32;17.30;77.80
81192;DHT22;70665;47.652;-2.730;2024-02-15T15:42:57;17.40;76.60